sensor_id;sensor_type;location;lat;lon;timestamp;P1;durP1;ratioP1;P2;durP2;ratioP2
69410;SDS011;56604;48.652;9.194;2024-03-23T00:55:59;9.50;;;2.90;;
69410;SDS011;56604;48.652;9.194;2024-03-23T00:58:25;3.53;;;2.80;;
69410;SDS011;56604;48.652;9.194;2024-03-23T01:00:50;2.53;;;2.33;;
69410;SDS011;56604;48.652;9.194;2024-03-23T01:03:16;2.73;;;2.60;;
69410;SDS011;56604;48.652;9.194;2024-03-23T01:05:41;2.83;;;2.63;;
69410;SDS011;56604;48.652;9.194;2024-03-23T01:08:06;3.50;;;2.83;;
69410;SDS011;56604;48.652;9.194;2024-03-23T01:10:32;3.27;;;3.07;;
69410;SDS011;56604;48.652;9.194;2024-03-23T01:12:57;4.00;;;3.20;;
69410;SDS011;56604;48.652;9.194;2024-03-23T01:15:22;2.90;;;2.70;;
69410;SDS011;56604;48.652;9.194;2024-03-23T01:17:47;5.80;;;2.60;;
69410;SDS011;56604;48.652;9.194;2024-03-23T01:20:13;3.50;;;2.47;;
69410;SDS011;56604;48.652;9.194;2024-03-23T01:22:38;2.20;;;2.10;;
69410;SDS011;56604;48.652;9.194;2024-03-23T01:25:03;2.53;;;2.43;;
69410;SDS011;56604;48.652;9.194;2024-03-23T01:27:29;3.20;;;2.90;;
69410;SDS011;56604;48.652;9.194;2024-03-23T01:29:54;5.40;;;2.77;;
69410;SDS011;56604;48.652;9.194;2024-03-23T01:32:19;3.67;;;2.57;;
69410;SDS011;56604;48.652;9.194;2024-03-23T01:34:45;6.00;;;3.27;;
69410;SDS011;56604;48.652;9.194;2024-03-23T01:37:12;3.00;;;2.70;;
69410;SDS011;56604;48.652;9.194;2024-03-23T01:39:37;2.67;;;2.47;;
69410;SDS011;56604;48.652;9.194;2024-03-23T01:42:03;6.07;;;2.60;;
69410;SDS011;56604;48.652;9.194;2024-03-23T01:44:29;6.10;;;2.67;;
69410;SDS011;56604;48.652;9.194;2024-03-23T01:46:54;2.63;;;2.53;;
69410;SDS011;56604;48.652;9.194;2024-03-23T01:49:20;4.07;;;2.67;;
69410;SDS011;56604;48.652;9.194;2024-03-23T01:51:47;2.50;;;2.40;;
69410;SDS011;56604;48.652;9.194;2024-03-23T01:54:12;5.60;;;2.63;;
69410;SDS011;56604;48.652;9.194;2024-03-23T01:56:37;2.90;;;2.47;;
69410;SDS011;56604;48.652;9.194;2024-03-23T01:59:06;3.97;;;2.47;;
69410;SDS011;56604;48.652;9.194;2024-03-23T02:01:34;5.27;;;2.10;;
69410;SDS011;56604;48.652;9.194;2024-03-23T02:04:01;3.17;;;2.97;;
69410;SDS011;56604;48.652;9.194;2024-03-23T02:06:26;2.37;;;2.20;;
69410;SDS011;56604;48.652;9.194;2024-03-23T02:08:53;9.00;;;2.50;;
69410;SDS011;56604;48.652;9.194;2024-03-23T02:11:19;9.87;;;2.30;;
69410;SDS011;56604;48.652;9.194;2024-03-23T02:13:44;3.00;;;2.70;;
69410;SDS011;56604;48.652;9.194;2024-03-23T02:16:10;7.27;;;2.70;;
69410;SDS011;56604;48.652;9.194;2024-03-23T02:18:35;2.70;;;2.50;;
69410;SDS011;56604;48.652;9.194;2024-03-23T02:21:01;3.50;;;2.93;;
69410;SDS011;56604;48.652;9.194;2024-03-23T02:23:26;5.20;;;2.90;;
69410;SDS011;56604;48.652;9.194;2024-03-23T02:25:52;2.60;;;2.40;;
69410;SDS011;56604;48.652;9.194;2024-03-23T02:28:18;4.90;;;2.40;;
69410;SDS011;56604;48.652;9.194;2024-03-23T02:30:44;2.23;;;2.13;;
69410;SDS011;56604;48.652;9.194;2024-03-23T02:33:09;2.70;;;2.50;;
69410;SDS011;56604;48.652;9.194;2024-03-23T02:35:35;3.10;;;2.70;;
69410;SDS011;56604;48.652;9.194;2024-03-23T02:38:00;2.63;;;2.50;;
69410;SDS011;56604;48.652;9.194;2024-03-23T02:40:25;3.57;;;2.70;;
69410;SDS011;56604;48.652;9.194;2024-03-23T02:42:51;3.10;;;2.73;;
69410;SDS011;56604;48.652;9.194;2024-03-23T02:45:17;2.43;;;2.30;;
69410;SDS011;56604;48.652;9.194;2024-03-23T02:47:42;3.23;;;2.50;;
69410;SDS011;56604;48.652;9.194;2024-03-23T02:50:08;3.30;;;2.63;;
69410;SDS011;56604;48.652;9.194;2024-03-23T02:52:34;4.30;;;2.67;;
69410;SDS011;56604;48.652;9.194;2024-03-23T02:54:59;2.30;;;2.20;;
69410;SDS011;56604;48.652;9.194;2024-03-23T02:57:26;3.20;;;2.53;;
69410;SDS011;56604;48.652;9.194;2024-03-23T02:59:52;7.37;;;2.43;;
69410;SDS011;56604;48.652;9.194;2024-03-23T03:02:17;2.20;;;2.10;;
69410;SDS011;56604;48.652;9.194;2024-03-23T03:04:42;2.60;;;2.00;;
69410;SDS011;56604;48.652;9.194;2024-03-23T03:07:08;5.70;;;2.70;;
69410;SDS011;56604;48.652;9.194;2024-03-23T03:09:33;2.53;;;2.33;;
69410;SDS011;56604;48.652;9.194;2024-03-23T03:12:00;2.50;;;2.30;;
69410;SDS011;56604;48.652;9.194;2024-03-23T03:14:26;4.63;;;2.23;;
69410;SDS011;56604;48.652;9.194;2024-03-23T03:16:51;2.37;;;2.17;;
69410;SDS011;56604;48.652;9.194;2024-03-23T03:19:17;3.60;;;2.50;;
69410;SDS011;56604;48.652;9.194;2024-03-23T03:21:42;3.90;;;2.50;;
69410;SDS011;56604;48.652;9.194;2024-03-23T03:24:07;4.73;;;2.13;;
69410;SDS011;56604;48.652;9.194;2024-03-23T03:26:33;5.03;;;2.30;;
69410;SDS011;56604;48.652;9.194;2024-03-23T03:28:58;3.50;;;2.70;;
69410;SDS011;56604;48.652;9.194;2024-03-23T03:31:23;4.20;;;2.50;;
69410;SDS011;56604;48.652;9.194;2024-03-23T03:33:49;2.63;;;2.43;;
69410;SDS011;56604;48.652;9.194;2024-03-23T03:36:16;4.23;;;2.80;;
69410;SDS011;56604;48.652;9.194;2024-03-23T03:38:41;2.33;;;2.20;;
69410;SDS011;56604;48.652;9.194;2024-03-23T03:41:07;3.13;;;2.70;;
69410;SDS011;56604;48.652;9.194;2024-03-23T03:43:32;4.47;;;2.30;;
69410;SDS011;56604;48.652;9.194;2024-03-23T03:45:59;7.30;;;2.50;;
69410;SDS011;56604;48.652;9.194;2024-03-23T03:48:25;2.80;;;2.20;;
69410;SDS011;56604;48.652;9.194;2024-03-23T03:50:51;9.03;;;2.53;;
69410;SDS011;56604;48.652;9.194;2024-03-23T03:53:17;3.03;;;2.67;;
69410;SDS011;56604;48.652;9.194;2024-03-23T03:55:42;3.47;;;2.43;;
69410;SDS011;56604;48.652;9.194;2024-03-23T03:58:08;3.80;;;2.30;;
69410;SDS011;56604;48.652;9.194;2024-03-23T04:00:33;2.70;;;2.50;;
69410;SDS011;56604;48.652;9.194;2024-03-23T04:02:59;3.00;;;2.50;;
69410;SDS011;56604;48.652;9.194;2024-03-23T04:05:24;3.17;;;2.63;;
69410;SDS011;56604;48.652;9.194;2024-03-23T04:07:49;3.13;;;2.50;;
69410;SDS011;56604;48.652;9.194;2024-03-23T04:10:15;7.30;;;2.73;;
69410;SDS011;56604;48.652;9.194;2024-03-23T04:12:41;2.47;;;2.30;;
69410;SDS011;56604;48.652;9.194;2024-03-23T04:15:08;5.03;;;2.80;;
69410;SDS011;56604;48.652;9.194;2024-03-23T04:17:34;3.33;;;2.40;;
69410;SDS011;56604;48.652;9.194;2024-03-23T04:20:00;12.53;;;2.57;;
69410;SDS011;56604;48.652;9.194;2024-03-23T04:22:26;3.30;;;2.70;;
69410;SDS011;56604;48.652;9.194;2024-03-23T04:24:56;2.80;;;2.60;;
69410;SDS011;56604;48.652;9.194;2024-03-23T04:27:22;2.70;;;2.50;;
69410;SDS011;56604;48.652;9.194;2024-03-23T04:29:48;2.40;;;2.30;;
69410;SDS011;56604;48.652;9.194;2024-03-23T04:32:14;3.00;;;2.80;;
69410;SDS011;56604;48.652;9.194;2024-03-23T04:34:39;4.70;;;2.40;;
69410;SDS011;56604;48.652;9.194;2024-03-23T04:37:05;3.40;;;2.53;;
69410;SDS011;56604;48.652;9.194;2024-03-23T04:39:30;3.00;;;2.80;;
69410;SDS011;56604;48.652;9.194;2024-03-23T04:41:57;4.13;;;2.80;;
69410;SDS011;56604;48.652;9.194;2024-03-23T04:44:22;2.80;;;2.60;;
69410;SDS011;56604;48.652;9.194;2024-03-23T04:46:48;13.60;;;3.30;;
69410;SDS011;56604;48.652;9.194;2024-03-23T04:49:13;4.20;;;2.80;;
69410;SDS011;56604;48.652;9.194;2024-03-23T04:51:39;3.10;;;2.60;;
69410;SDS011;56604;48.652;9.194;2024-03-23T04:54:06;4.47;;;2.80;;
69410;SDS011;56604;48.652;9.194;2024-03-23T04:56:32;3.17;;;2.70;;
69410;SDS011;56604;48.652;9.194;2024-03-23T04:58:58;3.53;;;3.23;;
69410;SDS011;56604;48.652;9.194;2024-03-23T05:01:27;2.87;;;2.50;;
69410;SDS011;56604;48.652;9.194;2024-03-23T05:03:53;7.13;;;3.60;;
69410;SDS011;56604;48.652;9.194;2024-03-23T05:06:18;4.67;;;3.13;;
69410;SDS011;56604;48.652;9.194;2024-03-23T05:08:44;5.30;;;3.70;;
69410;SDS011;56604;48.652;9.194;2024-03-23T05:11:11;3.90;;;3.60;;
69410;SDS011;56604;48.652;9.194;2024-03-23T05:13:36;6.73;;;4.17;;
69410;SDS011;56604;48.652;9.194;2024-03-23T05:16:01;13.23;;;4.73;;
69410;SDS011;56604;48.652;9.194;2024-03-23T05:18:27;4.23;;;3.93;;
69410;SDS011;56604;48.652;9.194;2024-03-23T05:20:57;5.10;;;4.60;;
69410;SDS011;56604;48.652;9.194;2024-03-23T05:23:23;5.60;;;4.40;;
69410;SDS011;56604;48.652;9.194;2024-03-23T05:25:49;5.83;;;5.23;;
69410;SDS011;56604;48.652;9.194;2024-03-23T05:28:16;11.53;;;5.37;;
69410;SDS011;56604;48.652;9.194;2024-03-23T05:30:41;8.00;;;5.93;;
69410;SDS011;56604;48.652;9.194;2024-03-23T05:33:06;7.00;;;5.90;;
69410;SDS011;56604;48.652;9.194;2024-03-23T05:35:32;8.20;;;6.23;;
69410;SDS011;56604;48.652;9.194;2024-03-23T05:37:58;10.30;;;6.90;;
69410;SDS011;56604;48.652;9.194;2024-03-23T05:40:26;13.80;;;7.50;;
69410;SDS011;56604;48.652;9.194;2024-03-23T05:42:52;8.50;;;7.40;;
69410;SDS011;56604;48.652;9.194;2024-03-23T05:45:23;10.47;;;7.73;;
69410;SDS011;56604;48.652;9.194;2024-03-23T05:47:49;10.90;;;7.53;;
69410;SDS011;56604;48.652;9.194;2024-03-23T05:50:14;12.10;;;8.20;;
69410;SDS011;56604;48.652;9.194;2024-03-23T05:52:39;11.50;;;8.73;;
69410;SDS011;56604;48.652;9.194;2024-03-23T05:55:06;9.60;;;7.60;;
69410;SDS011;56604;48.652;9.194;2024-03-23T05:57:31;13.63;;;8.57;;
69410;SDS011;56604;48.652;9.194;2024-03-23T05:59:57;11.77;;;8.23;;
69410;SDS011;56604;48.652;9.194;2024-03-23T06:02:22;12.40;;;9.20;;
69410;SDS011;56604;48.652;9.194;2024-03-23T06:04:48;10.43;;;8.43;;
69410;SDS011;56604;48.652;9.194;2024-03-23T06:07:13;15.67;;;9.23;;
69410;SDS011;56604;48.652;9.194;2024-03-23T06:09:40;11.53;;;8.73;;
69410;SDS011;56604;48.652;9.194;2024-03-23T06:12:07;11.80;;;9.10;;
69410;SDS011;56604;48.652;9.194;2024-03-23T06:14:32;11.23;;;8.70;;
69410;SDS011;56604;48.652;9.194;2024-03-23T06:16:58;13.03;;;9.70;;
69410;SDS011;56604;48.652;9.194;2024-03-23T06:19:24;11.87;;;8.17;;
69410;SDS011;56604;48.652;9.194;2024-03-23T06:21:52;11.13;;;8.10;;
69410;SDS011;56604;48.652;9.194;2024-03-23T06:24:17;9.27;;;6.80;;
69410;SDS011;56604;48.652;9.194;2024-03-23T06:26:42;7.40;;;5.43;;
69410;SDS011;56604;48.652;9.194;2024-03-23T06:29:08;6.87;;;5.43;;
69410;SDS011;56604;48.652;9.194;2024-03-23T06:31:34;5.10;;;4.60;;
69410;SDS011;56604;48.652;9.194;2024-03-23T06:33:59;4.47;;;4.07;;
69410;SDS011;56604;48.652;9.194;2024-03-23T06:36:26;3.67;;;3.37;;
69410;SDS011;56604;48.652;9.194;2024-03-23T06:38:52;3.37;;;3.10;;
69410;SDS011;56604;48.652;9.194;2024-03-23T06:41:17;2.87;;;2.77;;
69410;SDS011;56604;48.652;9.194;2024-03-23T06:43:43;2.80;;;2.70;;
69410;SDS011;56604;48.652;9.194;2024-03-23T06:46:08;2.67;;;2.47;;
69410;SDS011;56604;48.652;9.194;2024-03-23T06:48:33;2.00;;;1.90;;
69410;SDS011;56604;48.652;9.194;2024-03-23T06:50:59;1.70;;;1.60;;
69410;SDS011;56604;48.652;9.194;2024-03-23T06:53:24;6.13;;;1.90;;
69410;SDS011;56604;48.652;9.194;2024-03-23T06:55:54;3.13;;;1.10;;
69410;SDS011;56604;48.652;9.194;2024-03-23T06:58:20;1.43;;;1.23;;
69410;SDS011;56604;48.652;9.194;2024-03-23T07:00:46;2.30;;;1.60;;
69410;SDS011;56604;48.652;9.194;2024-03-23T07:03:12;1.20;;;1.20;;
69410;SDS011;56604;48.652;9.194;2024-03-23T07:05:37;1.10;;;1.10;;
69410;SDS011;56604;48.652;9.194;2024-03-23T07:08:03;3.53;;;1.67;;
69410;SDS011;56604;48.652;9.194;2024-03-23T07:10:28;1.00;;;1.00;;
69410;SDS011;56604;48.652;9.194;2024-03-23T07:12:53;0.90;;;0.90;;
69410;SDS011;56604;48.652;9.194;2024-03-23T07:15:19;1.27;;;1.27;;
69410;SDS011;56604;48.652;9.194;2024-03-23T07:17:46;1.10;;;1.00;;
69410;SDS011;56604;48.652;9.194;2024-03-23T07:20:12;0.93;;;0.93;;
69410;SDS011;56604;48.652;9.194;2024-03-23T07:22:38;0.97;;;0.97;;
69410;SDS011;56604;48.652;9.194;2024-03-23T07:25:04;0.80;;;0.80;;
69410;SDS011;56604;48.652;9.194;2024-03-23T07:27:32;1.73;;;0.87;;
69410;SDS011;56604;48.652;9.194;2024-03-23T07:29:57;1.00;;;0.70;;
69410;SDS011;56604;48.652;9.194;2024-03-23T07:32:23;1.07;;;0.60;;
69410;SDS011;56604;48.652;9.194;2024-03-23T07:34:48;0.60;;;0.60;;
69410;SDS011;56604;48.652;9.194;2024-03-23T07:37:14;0.73;;;0.60;;
69410;SDS011;56604;48.652;9.194;2024-03-23T07:39:39;0.60;;;0.60;;
69410;SDS011;56604;48.652;9.194;2024-03-23T07:42:06;0.50;;;0.50;;
69410;SDS011;56604;48.652;9.194;2024-03-23T07:44:31;0.50;;;0.50;;
69410;SDS011;56604;48.652;9.194;2024-03-23T07:46:57;0.50;;;0.50;;
69410;SDS011;56604;48.652;9.194;2024-03-23T07:49:23;0.60;;;0.60;;
69410;SDS011;56604;48.652;9.194;2024-03-23T07:51:48;0.50;;;0.50;;
69410;SDS011;56604;48.652;9.194;2024-03-23T07:54:14;2.77;;;0.60;;
69410;SDS011;56604;48.652;9.194;2024-03-23T07:56:39;1.10;;;0.57;;
69410;SDS011;56604;48.652;9.194;2024-03-23T07:59:04;0.57;;;0.57;;
69410;SDS011;56604;48.652;9.194;2024-03-23T08:01:30;0.83;;;0.67;;
69410;SDS011;56604;48.652;9.194;2024-03-23T08:03:55;0.50;;;0.50;;
69410;SDS011;56604;48.652;9.194;2024-03-23T08:06:20;0.60;;;0.60;;
69410;SDS011;56604;48.652;9.194;2024-03-23T08:08:50;0.40;;;0.40;;
69410;SDS011;56604;48.652;9.194;2024-03-23T08:11:24;0.50;;;0.50;;
69410;SDS011;56604;48.652;9.194;2024-03-23T08:13:56;0.60;;;0.60;;
69410;SDS011;56604;48.652;9.194;2024-03-23T08:16:22;0.50;;;0.50;;
69410;SDS011;56604;48.652;9.194;2024-03-23T08:18:50;0.57;;;0.57;;
69410;SDS011;56604;48.652;9.194;2024-03-23T08:21:17;0.60;;;0.50;;
69410;SDS011;56604;48.652;9.194;2024-03-23T08:23:43;0.80;;;0.80;;
69410;SDS011;56604;48.652;9.194;2024-03-23T08:26:11;0.50;;;0.50;;
69410;SDS011;56604;48.652;9.194;2024-03-23T08:28:38;0.80;;;0.80;;
69410;SDS011;56604;48.652;9.194;2024-03-23T08:31:04;0.60;;;0.60;;
69410;SDS011;56604;48.652;9.194;2024-03-23T08:33:30;0.70;;;0.70;;
69410;SDS011;56604;48.652;9.194;2024-03-23T08:35:57;0.80;;;0.80;;
69410;SDS011;56604;48.652;9.194;2024-03-23T08:38:24;0.70;;;0.70;;
69410;SDS011;56604;48.652;9.194;2024-03-23T08:41:00;0.97;;;0.90;;
69410;SDS011;56604;48.652;9.194;2024-03-23T08:43:38;0.70;;;0.70;;
69410;SDS011;56604;48.652;9.194;2024-03-23T08:46:08;0.80;;;0.80;;
69410;SDS011;56604;48.652;9.194;2024-03-23T08:48:35;0.93;;;0.80;;
69410;SDS011;56604;48.652;9.194;2024-03-23T08:51:02;1.00;;;1.00;;
69410;SDS011;56604;48.652;9.194;2024-03-23T08:53:29;1.10;;;1.10;;
69410;SDS011;56604;48.652;9.194;2024-03-23T08:55:55;1.30;;;0.77;;
69410;SDS011;56604;48.652;9.194;2024-03-23T08:58:23;2.07;;;1.40;;
69410;SDS011;56604;48.652;9.194;2024-03-23T09:00:49;2.77;;;1.07;;
69410;SDS011;56604;48.652;9.194;2024-03-23T09:03:15;1.30;;;1.20;;
69410;SDS011;56604;48.652;9.194;2024-03-23T09:05:40;1.17;;;1.17;;
69410;SDS011;56604;48.652;9.194;2024-03-23T09:08:06;3.00;;;1.17;;
69410;SDS011;56604;48.652;9.194;2024-03-23T09:10:32;1.20;;;1.07;;
69410;SDS011;56604;48.652;9.194;2024-03-23T09:13:00;1.43;;;1.30;;
69410;SDS011;56604;48.652;9.194;2024-03-23T09:15:25;1.60;;;1.00;;
69410;SDS011;56604;48.652;9.194;2024-03-23T09:17:50;3.03;;;1.30;;
69410;SDS011;56604;48.652;9.194;2024-03-23T09:20:15;2.60;;;1.77;;
69410;SDS011;56604;48.652;9.194;2024-03-23T09:22:41;1.93;;;1.80;;
69410;SDS011;56604;48.652;9.194;2024-03-23T09:25:06;2.00;;;1.90;;
69410;SDS011;56604;48.652;9.194;2024-03-23T09:27:32;5.87;;;2.30;;
69410;SDS011;56604;48.652;9.194;2024-03-23T09:29:57;2.90;;;2.00;;
69410;SDS011;56604;48.652;9.194;2024-03-23T09:32:22;7.87;;;2.30;;
69410;SDS011;56604;48.652;9.194;2024-03-23T09:34:48;5.03;;;2.90;;
69410;SDS011;56604;48.652;9.194;2024-03-23T09:37:13;6.20;;;2.30;;
69410;SDS011;56604;48.652;9.194;2024-03-23T09:39:38;3.93;;;2.40;;
69410;SDS011;56604;48.652;9.194;2024-03-23T09:42:04;2.53;;;2.33;;
69410;SDS011;56604;48.652;9.194;2024-03-23T09:44:31;7.53;;;2.77;;
69410;SDS011;56604;48.652;9.194;2024-03-23T09:46:56;5.93;;;2.50;;
69410;SDS011;56604;48.652;9.194;2024-03-23T09:49:21;5.63;;;2.80;;
69410;SDS011;56604;48.652;9.194;2024-03-23T09:51:47;8.10;;;2.77;;
69410;SDS011;56604;48.652;9.194;2024-03-23T09:54:12;3.67;;;2.50;;
69410;SDS011;56604;48.652;9.194;2024-03-23T09:56:37;5.33;;;2.63;;
69410;SDS011;56604;48.652;9.194;2024-03-23T09:59:03;7.50;;;3.00;;
69410;SDS011;56604;48.652;9.194;2024-03-23T10:01:29;11.37;;;3.50;;
69410;SDS011;56604;48.652;9.194;2024-03-23T10:03:55;4.90;;;2.97;;
69410;SDS011;56604;48.652;9.194;2024-03-23T10:06:21;6.07;;;3.10;;
69410;SDS011;56604;48.652;9.194;2024-03-23T10:08:48;3.70;;;2.73;;
69410;SDS011;56604;48.652;9.194;2024-03-23T10:11:14;5.20;;;3.00;;
69410;SDS011;56604;48.652;9.194;2024-03-23T10:13:41;5.43;;;2.87;;
69410;SDS011;56604;48.652;9.194;2024-03-23T10:16:09;3.67;;;2.80;;
69410;SDS011;56604;48.652;9.194;2024-03-23T10:18:38;6.80;;;2.70;;
69410;SDS011;56604;48.652;9.194;2024-03-23T10:21:08;9.47;;;3.67;;
69410;SDS011;56604;48.652;9.194;2024-03-23T10:23:36;9.53;;;3.20;;
69410;SDS011;56604;48.652;9.194;2024-03-23T10:26:24;11.50;;;3.80;;
69410;SDS011;56604;48.652;9.194;2024-03-23T10:31:29;4.93;;;2.90;;
69410;SDS011;56604;48.652;9.194;2024-03-23T10:33:56;9.10;;;3.60;;
69410;SDS011;56604;48.652;9.194;2024-03-23T10:36:21;5.77;;;2.70;;
69410;SDS011;56604;48.652;9.194;2024-03-23T10:38:47;6.03;;;2.80;;
69410;SDS011;56604;48.652;9.194;2024-03-23T10:41:15;3.53;;;2.50;;
69410;SDS011;56604;48.652;9.194;2024-03-23T10:43:40;12.33;;;3.50;;
69410;SDS011;56604;48.652;9.194;2024-03-23T10:46:07;14.70;;;3.30;;
69410;SDS011;56604;48.652;9.194;2024-03-23T10:48:34;6.47;;;2.87;;
69410;SDS011;56604;48.652;9.194;2024-03-23T10:50:59;3.43;;;3.00;;
69410;SDS011;56604;48.652;9.194;2024-03-23T10:53:26;7.83;;;3.00;;
69410;SDS011;56604;48.652;9.194;2024-03-23T10:55:52;5.90;;;3.00;;
69410;SDS011;56604;48.652;9.194;2024-03-23T10:58:21;8.23;;;3.13;;
69410;SDS011;56604;48.652;9.194;2024-03-23T11:00:51;5.63;;;1.83;;
69410;SDS011;56604;48.652;9.194;2024-03-23T11:03:35;1.80;;;1.67;;
69410;SDS011;56604;48.652;9.194;2024-03-23T11:06:01;7.37;;;2.57;;
69410;SDS011;56604;48.652;9.194;2024-03-23T11:13:47;3.10;;;1.20;;
69410;SDS011;56604;48.652;9.194;2024-03-23T11:18:39;3.07;;;2.37;;
69410;SDS011;56604;48.652;9.194;2024-03-23T11:21:06;5.90;;;1.93;;
69410;SDS011;56604;48.652;9.194;2024-03-23T11:23:33;3.07;;;1.73;;
69410;SDS011;56604;48.652;9.194;2024-03-23T11:25:58;2.30;;;1.60;;
69410;SDS011;56604;48.652;9.194;2024-03-23T11:28:23;2.83;;;1.80;;
69410;SDS011;56604;48.652;9.194;2024-03-23T11:30:48;2.63;;;1.53;;
69410;SDS011;56604;48.652;9.194;2024-03-23T11:33:14;4.30;;;1.60;;
69410;SDS011;56604;48.652;9.194;2024-03-23T11:35:40;4.60;;;1.80;;
69410;SDS011;56604;48.652;9.194;2024-03-23T11:38:08;11.07;;;2.27;;
69410;SDS011;56604;48.652;9.194;2024-03-23T11:40:36;1.67;;;1.57;;
69410;SDS011;56604;48.652;9.194;2024-03-23T11:43:04;4.70;;;1.90;;
69410;SDS011;56604;48.652;9.194;2024-03-23T11:45:35;3.03;;;1.80;;
69410;SDS011;56604;48.652;9.194;2024-03-23T11:48:07;3.90;;;1.77;;
69410;SDS011;56604;48.652;9.194;2024-03-23T11:50:34;1.83;;;1.73;;
69410;SDS011;56604;48.652;9.194;2024-03-23T11:53:34;2.57;;;1.37;;
69410;SDS011;56604;48.652;9.194;2024-03-23T11:55:54;1.60;;;1.47;;
69410;SDS011;56604;48.652;9.194;2024-03-23T11:58:21;1.50;;;1.40;;
69410;SDS011;56604;48.652;9.194;2024-03-23T12:01:00;1.57;;;1.47;;
69410;SDS011;56604;48.652;9.194;2024-03-23T12:03:30;4.43;;;1.80;;
69410;SDS011;56604;48.652;9.194;2024-03-23T12:05:59;3.47;;;1.67;;
69410;SDS011;56604;48.652;9.194;2024-03-23T12:08:30;1.40;;;1.23;;
69410;SDS011;56604;48.652;9.194;2024-03-23T12:11:06;4.30;;;1.40;;
69410;SDS011;56604;48.652;9.194;2024-03-23T12:13:32;5.13;;;1.90;;
69410;SDS011;56604;48.652;9.194;2024-03-23T12:18:37;4.70;;;1.80;;
69410;SDS011;56604;48.652;9.194;2024-03-23T12:21:07;2.60;;;1.67;;
69410;SDS011;56604;48.652;9.194;2024-03-23T12:23:33;5.13;;;1.90;;
69410;SDS011;56604;48.652;9.194;2024-03-23T12:25:59;2.53;;;1.40;;
69410;SDS011;56604;48.652;9.194;2024-03-23T12:28:25;7.23;;;2.30;;
69410;SDS011;56604;48.652;9.194;2024-03-23T12:30:53;2.40;;;1.90;;
69410;SDS011;56604;48.652;9.194;2024-03-23T12:33:19;2.23;;;1.70;;
69410;SDS011;56604;48.652;9.194;2024-03-23T12:35:44;2.90;;;1.50;;
69410;SDS011;56604;48.652;9.194;2024-03-23T12:38:10;6.73;;;2.00;;
69410;SDS011;56604;48.652;9.194;2024-03-23T12:40:35;6.00;;;1.77;;
69410;SDS011;56604;48.652;9.194;2024-03-23T12:43:00;6.77;;;2.13;;
69410;SDS011;56604;48.652;9.194;2024-03-23T12:45:26;10.00;;;1.63;;
69410;SDS011;56604;48.652;9.194;2024-03-23T12:47:51;12.83;;;1.77;;
69410;SDS011;56604;48.652;9.194;2024-03-23T12:50:20;13.33;;;2.80;;
69410;SDS011;56604;48.652;9.194;2024-03-23T12:52:46;8.93;;;2.37;;
69410;SDS011;56604;48.652;9.194;2024-03-23T12:55:11;8.63;;;2.40;;
69410;SDS011;56604;48.652;9.194;2024-03-23T12:57:36;5.57;;;2.23;;
69410;SDS011;56604;48.652;9.194;2024-03-23T13:00:02;4.77;;;2.40;;
69410;SDS011;56604;48.652;9.194;2024-03-23T13:02:29;6.50;;;3.37;;
69410;SDS011;56604;48.652;9.194;2024-03-23T13:04:54;3.23;;;2.27;;
69410;SDS011;56604;48.652;9.194;2024-03-23T13:07:20;7.73;;;2.33;;
69410;SDS011;56604;48.652;9.194;2024-03-23T13:09:49;9.47;;;2.77;;
69410;SDS011;56604;48.652;9.194;2024-03-23T13:12:16;6.80;;;2.60;;
69410;SDS011;56604;48.652;9.194;2024-03-23T13:14:43;5.90;;;2.90;;
69410;SDS011;56604;48.652;9.194;2024-03-23T13:17:09;6.23;;;3.00;;
69410;SDS011;56604;48.652;9.194;2024-03-23T13:19:34;8.47;;;2.87;;
69410;SDS011;56604;48.652;9.194;2024-03-23T13:22:00;5.20;;;2.00;;
69410;SDS011;56604;48.652;9.194;2024-03-23T13:24:26;4.30;;;2.50;;
69410;SDS011;56604;48.652;9.194;2024-03-23T13:26:53;4.73;;;3.70;;
69410;SDS011;56604;48.652;9.194;2024-03-23T13:29:19;1.80;;;1.70;;
69410;SDS011;56604;48.652;9.194;2024-03-23T13:31:46;3.20;;;1.40;;
69410;SDS011;56604;48.652;9.194;2024-03-23T13:34:13;8.13;;;1.27;;
69410;SDS011;56604;48.652;9.194;2024-03-23T13:36:42;3.13;;;1.20;;
69410;SDS011;56604;48.652;9.194;2024-03-23T13:39:08;2.03;;;0.90;;
69410;SDS011;56604;48.652;9.194;2024-03-23T13:41:54;2.97;;;0.90;;
69410;SDS011;56604;48.652;9.194;2024-03-23T13:44:20;1.43;;;1.00;;
69410;SDS011;56604;48.652;9.194;2024-03-23T13:46:46;2.13;;;0.90;;
69410;SDS011;56604;48.652;9.194;2024-03-23T13:49:28;2.03;;;1.20;;
69410;SDS011;56604;48.652;9.194;2024-03-23T13:51:57;1.10;;;1.00;;
69410;SDS011;56604;48.652;9.194;2024-03-23T13:54:24;3.27;;;1.30;;
69410;SDS011;56604;48.652;9.194;2024-03-23T13:56:50;1.20;;;1.20;;
69410;SDS011;56604;48.652;9.194;2024-03-23T13:59:15;1.70;;;1.13;;
69410;SDS011;56604;48.652;9.194;2024-03-23T14:01:42;2.63;;;1.30;;
69410;SDS011;56604;48.652;9.194;2024-03-23T14:04:07;1.97;;;1.20;;
69410;SDS011;56604;48.652;9.194;2024-03-23T14:06:32;3.27;;;1.60;;
69410;SDS011;56604;48.652;9.194;2024-03-23T14:08:58;1.53;;;1.30;;
69410;SDS011;56604;48.652;9.194;2024-03-23T14:11:23;6.00;;;1.23;;
69410;SDS011;56604;48.652;9.194;2024-03-23T14:13:48;2.60;;;1.77;;
69410;SDS011;56604;48.652;9.194;2024-03-23T14:16:14;4.77;;;2.90;;
69410;SDS011;56604;48.652;9.194;2024-03-23T14:18:39;1.23;;;1.13;;
69410;SDS011;56604;48.652;9.194;2024-03-23T14:21:04;4.10;;;1.73;;
69410;SDS011;56604;48.652;9.194;2024-03-23T14:23:30;2.60;;;1.60;;
69410;SDS011;56604;48.652;9.194;2024-03-23T14:25:59;1.33;;;1.10;;
69410;SDS011;56604;48.652;9.194;2024-03-23T14:28:25;2.40;;;1.33;;
69410;SDS011;56604;48.652;9.194;2024-03-23T14:30:50;3.20;;;1.37;;
69410;SDS011;56604;48.652;9.194;2024-03-23T14:33:16;2.50;;;1.67;;
69410;SDS011;56604;48.652;9.194;2024-03-23T14:35:51;4.50;;;1.83;;
69410;SDS011;56604;48.652;9.194;2024-03-23T14:38:18;7.00;;;1.60;;
69410;SDS011;56604;48.652;9.194;2024-03-23T14:40:43;7.20;;;1.90;;
69410;SDS011;56604;48.652;9.194;2024-03-23T14:43:10;5.40;;;1.50;;
69410;SDS011;56604;48.652;9.194;2024-03-23T14:45:35;6.57;;;1.73;;
69410;SDS011;56604;48.652;9.194;2024-03-23T14:48:00;2.77;;;1.40;;
69410;SDS011;56604;48.652;9.194;2024-03-23T14:50:26;3.13;;;1.77;;
69410;SDS011;56604;48.652;9.194;2024-03-23T14:52:51;2.13;;;1.33;;
69410;SDS011;56604;48.652;9.194;2024-03-23T14:55:16;4.77;;;1.87;;
69410;SDS011;56604;48.652;9.194;2024-03-23T14:57:42;3.33;;;1.40;;
69410;SDS011;56604;48.652;9.194;2024-03-23T15:00:08;1.90;;;1.10;;
69410;SDS011;56604;48.652;9.194;2024-03-23T15:02:36;2.70;;;0.90;;
69410;SDS011;56604;48.652;9.194;2024-03-23T15:05:02;4.73;;;1.10;;
69410;SDS011;56604;48.652;9.194;2024-03-23T15:07:29;1.43;;;0.87;;
69410;SDS011;56604;48.652;9.194;2024-03-23T15:09:58;8.20;;;1.43;;
69410;SDS011;56604;48.652;9.194;2024-03-23T15:12:23;2.27;;;1.07;;
69410;SDS011;56604;48.652;9.194;2024-03-23T15:14:49;1.83;;;1.23;;
69410;SDS011;56604;48.652;9.194;2024-03-23T15:17:14;2.23;;;1.43;;
69410;SDS011;56604;48.652;9.194;2024-03-23T15:19:39;1.17;;;1.17;;
69410;SDS011;56604;48.652;9.194;2024-03-23T15:22:08;1.43;;;1.33;;
69410;SDS011;56604;48.652;9.194;2024-03-23T15:24:34;1.57;;;1.17;;
69410;SDS011;56604;48.652;9.194;2024-03-23T15:27:00;1.67;;;0.80;;
69410;SDS011;56604;48.652;9.194;2024-03-23T15:29:26;3.23;;;1.07;;
69410;SDS011;56604;48.652;9.194;2024-03-23T15:31:51;1.73;;;1.50;;
69410;SDS011;56604;48.652;9.194;2024-03-23T15:34:18;5.93;;;1.20;;
69410;SDS011;56604;48.652;9.194;2024-03-23T15:36:46;5.90;;;0.93;;
69410;SDS011;56604;48.652;9.194;2024-03-23T15:39:15;1.90;;;0.97;;
69410;SDS011;56604;48.652;9.194;2024-03-23T15:41:41;1.17;;;1.07;;
69410;SDS011;56604;48.652;9.194;2024-03-23T15:44:09;1.00;;;1.00;;
69410;SDS011;56604;48.652;9.194;2024-03-23T15:46:34;2.07;;;1.33;;
69410;SDS011;56604;48.652;9.194;2024-03-23T15:48:59;3.47;;;1.20;;